createdAt,value
2017-05-26T00:00:38.540Z,13.40
2017-05-26T00:03:06.675Z,13.40
2017-05-26T00:05:34.416Z,13.50
2017-05-26T00:08:02.338Z,13.60
2017-05-26T00:10:30.275Z,13.50
2017-05-26T00:12:58.031Z,13.50
2017-05-26T00:15:25.774Z,13.60
2017-05-26T00:17:53.606Z,13.60
2017-05-26T00:20:21.339Z,13.50
2017-05-26T00:22:49.092Z,13.40
2017-05-26T00:25:16.912Z,13.40
2017-05-26T00:27:45.860Z,13.20
2017-05-26T00:30:13.616Z,13.20
2017-05-26T00:32:41.381Z,13.20
2017-05-26T00:35:09.133Z,13.20
2017-05-26T00:37:36.873Z,13.30
2017-05-26T00:40:05.492Z,13.50
2017-05-26T00:42:33.223Z,13.50
2017-05-26T00:45:00.956Z,13.50
2017-05-26T00:47:28.884Z,13.50
2017-05-26T00:49:56.648Z,13.40
2017-05-26T00:52:24.384Z,13.30
2017-05-26T00:54:52.149Z,13.20
2017-05-26T00:57:19.880Z,13.10
2017-05-26T00:59:47.640Z,13.10
2017-05-26T01:02:15.568Z,13.10
2017-05-26T01:04:43.311Z,13.10
2017-05-26T01:07:11.039Z,13.10
2017-05-26T01:09:39.991Z,13.00
2017-05-26T01:12:07.729Z,13.00
2017-05-26T01:14:35.464Z,13.00
2017-05-26T01:17:03.805Z,12.80
2017-05-26T01:19:31.536Z,12.70
2017-05-26T01:21:59.287Z,12.70
2017-05-26T01:24:27.065Z,12.60
2017-05-26T01:26:54.801Z,12.60
2017-05-26T01:29:23.023Z,12.60
2017-05-26T01:31:51.275Z,12.50
2017-05-26T01:34:19.524Z,12.50
2017-05-26T01:36:47.279Z,12.50
2017-05-26T01:39:15.891Z,12.60
2017-05-26T01:41:43.629Z,12.70
2017-05-26T01:44:11.359Z,12.80
2017-05-26T01:46:39.828Z,12.80
2017-05-26T01:49:07.555Z,12.90
2017-05-26T01:51:35.296Z,12.90
2017-05-26T01:54:03.737Z,12.90
2017-05-26T01:56:31.479Z,12.70
2017-05-26T01:58:59.204Z,12.70
2017-05-26T02:01:26.966Z,12.60
2017-05-26T02:03:54.700Z,12.50
2017-05-26T02:06:22.456Z,12.60
2017-05-26T02:08:50.207Z,12.50
2017-05-26T02:11:17.956Z,12.50
2017-05-26T02:13:45.681Z,12.40
2017-05-26T02:16:14.627Z,12.40
2017-05-26T02:18:42.360Z,12.50
2017-05-26T02:21:10.095Z,12.40
2017-05-26T02:23:37.952Z,12.40
2017-05-26T02:26:05.692Z,12.50
2017-05-26T02:28:33.428Z,12.50
2017-05-26T02:31:02.239Z,12.50
2017-05-26T02:33:29.978Z,12.50
2017-05-26T02:35:57.711Z,12.40
2017-05-26T02:38:25.832Z,12.40
2017-05-26T02:40:53.564Z,12.30
2017-05-26T02:43:21.301Z,12.40
2017-05-26T02:45:49.536Z,12.50
2017-05-26T02:48:17.271Z,12.50
2017-05-26T02:50:45.004Z,12.60
2017-05-26T02:53:12.760Z,12.70
2017-05-26T02:55:40.508Z,12.70
2017-05-26T02:58:08.240Z,12.60
2017-05-26T03:00:36.548Z,12.60
2017-05-26T03:03:04.284Z,12.50
2017-05-26T03:05:32.008Z,12.50
2017-05-26T03:08:00.128Z,12.60
2017-05-26T03:10:27.862Z,12.60
2017-05-26T03:12:55.596Z,12.70
2017-05-26T03:15:23.521Z,12.60
2017-05-26T03:17:51.257Z,12.60
2017-05-26T03:20:18.988Z,12.60
2017-05-26T03:22:47.117Z,12.70
2017-05-26T03:25:14.848Z,12.70
2017-05-26T03:27:42.576Z,12.70
2017-05-26T03:30:10.344Z,12.70
2017-05-26T03:32:38.280Z,12.60
2017-05-26T03:35:06.027Z,12.50
2017-05-26T03:37:33.795Z,12.60
2017-05-26T03:40:01.529Z,12.60
2017-05-26T03:42:29.255Z,12.70
2017-05-26T03:44:57.017Z,12.60
2017-05-26T03:47:24.763Z,12.60
2017-05-26T03:49:52.492Z,12.70
2017-05-26T03:52:20.262Z,12.70
2017-05-26T03:54:48.011Z,12.80
2017-05-26T03:57:15.748Z,13.00
2017-05-26T03:59:43.989Z,13.00
2017-05-26T04:02:11.727Z,12.90
2017-05-26T04:04:39.464Z,12.80
2017-05-26T04:07:09.027Z,13.00
2017-05-26T04:09:36.760Z,13.10
2017-05-26T04:12:04.488Z,13.20
2017-05-26T04:14:32.247Z,13.20
2017-05-26T04:17:00.004Z,13.30
2017-05-26T04:19:27.735Z,13.20
2017-05-26T04:21:55.508Z,13.30
2017-05-26T04:24:23.241Z,13.30
2017-05-26T04:26:50.968Z,13.40
2017-05-26T04:29:18.860Z,13.40
2017-05-26T04:31:46.591Z,13.40
2017-05-26T04:34:14.328Z,13.40
2017-05-26T04:36:42.084Z,13.40
2017-05-26T04:39:09.829Z,13.40
2017-05-26T04:41:37.568Z,13.60
2017-05-26T04:44:05.476Z,13.70
2017-05-26T04:46:33.221Z,13.70
2017-05-26T04:49:00.952Z,13.60
2017-05-26T04:51:28.727Z,13.60
2017-05-26T04:53:56.465Z,13.60
2017-05-26T04:56:24.200Z,13.60
2017-05-26T04:58:52.159Z,13.60
2017-05-26T05:01:19.194Z,13.60
2017-05-26T05:03:46.928Z,13.90
2017-05-26T05:06:15.840Z,14.00
2017-05-26T05:08:43.568Z,14.10
2017-05-26T05:11:11.296Z,14.20
2017-05-26T05:13:39.230Z,14.20
2017-05-26T05:16:06.964Z,14.10
2017-05-26T05:18:34.708Z,14.20
2017-05-26T05:21:03.160Z,14.20
2017-05-26T05:23:30.888Z,14.30
2017-05-26T05:25:58.616Z,14.40
2017-05-26T05:28:26.547Z,14.50
2017-05-26T05:30:54.276Z,14.50
2017-05-26T05:33:22.009Z,14.40
2017-05-26T05:35:50.967Z,14.30
2017-05-26T05:38:18.697Z,14.30
2017-05-26T05:40:46.427Z,14.30
2017-05-26T05:43:14.192Z,14.50
2017-05-26T05:45:41.927Z,14.60
2017-05-26T05:48:09.683Z,14.80
2017-05-26T05:50:39.295Z,15.00
2017-05-26T05:53:07.033Z,15.20
2017-05-26T05:55:34.764Z,15.00
2017-05-26T05:58:02.900Z,15.10
2017-05-26T06:00:30.624Z,15.30
2017-05-26T06:02:58.365Z,15.30
2017-05-26T06:05:26.389Z,15.40
2017-05-26T06:07:54.109Z,15.50
2017-05-26T06:10:21.840Z,15.60
2017-05-26T06:12:49.780Z,15.70
2017-05-26T06:15:17.500Z,15.60
2017-05-26T06:17:45.248Z,15.50
2017-05-26T06:20:13.390Z,15.30
2017-05-26T06:22:41.127Z,15.00
2017-05-26T06:25:08.865Z,15.20
2017-05-26T06:27:36.633Z,15.50
2017-05-26T06:30:04.367Z,15.50
2017-05-26T06:32:32.099Z,15.50
2017-05-26T06:35:00.167Z,15.50
2017-05-26T06:37:28.342Z,15.50
2017-05-26T06:39:56.068Z,15.60
2017-05-26T06:42:23.820Z,15.40
2017-05-26T06:44:51.569Z,15.50
2017-05-26T06:47:19.302Z,15.70
2017-05-26T06:49:47.076Z,15.90
2017-05-26T06:52:14.805Z,16.20
2017-05-26T06:54:42.532Z,16.40
2017-05-26T06:57:10.768Z,16.60
2017-05-26T06:59:38.497Z,16.70
2017-05-26T07:02:06.265Z,16.50
2017-05-26T07:04:34.008Z,16.10
2017-05-26T07:07:01.728Z,16.10
2017-05-26T07:09:29.464Z,16.20
2017-05-26T07:11:58.724Z,16.50
2017-05-26T07:14:26.445Z,16.70
2017-05-26T07:16:54.173Z,16.80
2017-05-26T07:19:22.293Z,17.00
2017-05-26T07:21:50.018Z,17.00
2017-05-26T07:24:17.739Z,17.00
2017-05-26T07:26:45.772Z,17.10
2017-05-26T07:29:13.491Z,17.10
2017-05-26T07:31:41.220Z,17.40
2017-05-26T07:34:08.937Z,17.30
2017-05-26T07:36:36.712Z,17.70
2017-05-26T07:39:04.439Z,17.90
2017-05-26T07:41:32.476Z,18.10
2017-05-26T07:44:00.208Z,18.10
2017-05-26T07:46:27.936Z,17.80
2017-05-26T07:48:55.756Z,17.60
2017-05-26T07:51:23.544Z,17.50
2017-05-26T07:53:51.330Z,17.70
2017-05-26T07:56:19.873Z,17.50
2017-05-26T07:58:46.896Z,17.50
2017-05-26T08:01:14.684Z,17.30
2017-05-26T08:03:42.637Z,17.60
2017-05-26T08:06:10.423Z,17.50
2017-05-26T08:08:38.212Z,17.70
2017-05-26T08:11:05.248Z,17.70
2017-05-26T08:13:33.057Z,18.20
2017-05-26T08:16:00.837Z,18.40
2017-05-26T08:18:28.648Z,18.60
2017-05-26T08:20:56.440Z,18.60
2017-05-26T08:23:24.268Z,18.60
2017-05-26T08:25:52.473Z,18.30
2017-05-26T08:28:20.273Z,18.30
2017-05-26T08:30:48.056Z,18.40
2017-05-26T08:33:16.069Z,18.30
2017-05-26T08:35:43.858Z,18.30
2017-05-26T08:38:11.646Z,18.30
2017-05-26T08:40:39.792Z,18.50
2017-05-26T08:43:06.808Z,18.50
2017-05-26T08:45:34.592Z,18.50
2017-05-26T08:48:02.556Z,18.60
2017-05-26T08:50:30.340Z,18.80
2017-05-26T08:52:58.233Z,19.00
2017-05-26T08:55:26.376Z,18.90
2017-05-26T08:57:54.175Z,18.90
2017-05-26T09:00:21.952Z,19.20
2017-05-26T09:02:50.486Z,19.50
2017-05-26T09:05:18.275Z,19.70
2017-05-26T09:07:45.300Z,19.60
2017-05-26T09:10:13.372Z,19.40
2017-05-26T09:12:41.179Z,19.30
2017-05-26T09:15:09.001Z,19.10
2017-05-26T09:17:37.181Z,19.20
2017-05-26T09:20:05.005Z,19.50
2017-05-26T09:22:32.812Z,19.80
2017-05-26T09:25:01.665Z,20.00
2017-05-26T09:27:29.475Z,19.80
2017-05-26T09:29:57.269Z,19.70
2017-05-26T09:32:25.088Z,19.70
2017-05-26T09:34:52.890Z,19.80
2017-05-26T09:37:20.700Z,20.00
2017-05-26T09:39:48.915Z,20.30
2017-05-26T09:42:17.347Z,20.20
2017-05-26T09:44:45.200Z,20.20
2017-05-26T09:47:13.385Z,20.30
2017-05-26T09:49:41.192Z,20.40
2017-05-26T09:52:08.976Z,20.50
2017-05-26T09:54:36.805Z,20.50
2017-05-26T09:57:04.616Z,20.60
2017-05-26T09:59:32.396Z,20.60
2017-05-26T10:02:00.568Z,20.60
2017-05-26T10:04:28.345Z,20.50
2017-05-26T10:08:23.285Z,20.80
2017-05-26T10:10:51.082Z,20.70
2017-05-26T10:13:18.869Z,20.80
2017-05-26T10:15:46.684Z,20.90
2017-05-26T10:18:14.544Z,21.00
2017-05-26T10:20:42.324Z,21.00
2017-05-26T10:23:09.869Z,21.00
2017-05-26T10:25:37.657Z,21.00
2017-05-26T10:28:05.441Z,21.10
2017-05-26T10:30:33.467Z,21.20
2017-05-26T10:33:01.250Z,21.30
2017-05-26T10:35:29.039Z,21.40
2017-05-26T10:37:57.191Z,21.50
2017-05-26T10:40:24.981Z,21.50
2017-05-26T10:42:52.780Z,21.40
2017-05-26T10:45:20.592Z,21.70
2017-05-26T10:47:48.402Z,21.90
2017-05-26T10:50:16.221Z,22.00
2017-05-26T10:52:45.286Z,22.00
2017-05-26T10:55:13.081Z,22.00
2017-05-26T10:57:40.861Z,22.00
2017-05-26T11:00:08.990Z,22.20
2017-05-26T11:02:36.877Z,22.20
2017-05-26T11:05:04.661Z,22.30
2017-05-26T11:07:32.460Z,22.40
2017-05-26T11:10:00.267Z,22.40
2017-05-26T11:12:28.068Z,22.30
2017-05-26T11:14:56.997Z,22.20
2017-05-26T11:17:24.788Z,22.20
2017-05-26T11:19:52.572Z,22.10
2017-05-26T11:22:21.015Z,22.10
2017-05-26T11:24:48.808Z,22.10
2017-05-26T11:27:16.629Z,22.10
2017-05-26T11:29:45.644Z,22.20
2017-05-26T11:32:13.427Z,22.20
2017-05-26T11:34:41.209Z,22.20
2017-05-26T11:37:09.038Z,22.20
2017-05-26T11:39:36.840Z,22.10
2017-05-26T11:42:03.874Z,22.10
2017-05-26T11:44:31.833Z,21.90
2017-05-26T11:46:59.637Z,22.00
2017-05-26T11:49:27.422Z,22.10
2017-05-26T11:51:56.553Z,22.20
2017-05-26T11:54:24.352Z,22.30
2017-05-26T11:56:52.160Z,22.30
2017-05-26T11:59:20.097Z,22.30
2017-05-26T12:01:47.121Z,22.30
2017-05-26T12:04:14.913Z,22.20
2017-05-26T12:06:42.997Z,22.30
2017-05-26T12:09:10.780Z,22.40
2017-05-26T12:11:38.566Z,22.50
2017-05-26T12:14:06.380Z,22.60
2017-05-26T12:16:34.173Z,22.60
2017-05-26T12:19:01.985Z,22.70
2017-05-26T12:21:29.802Z,22.70
2017-05-26T12:23:57.588Z,22.70
2017-05-26T12:26:25.384Z,22.70
2017-05-26T12:28:53.376Z,22.80
2017-05-26T12:31:21.172Z,22.80
2017-05-26T12:33:48.958Z,22.80
2017-05-26T12:36:17.085Z,22.90
2017-05-26T12:38:44.874Z,22.90
2017-05-26T12:41:12.665Z,22.90
2017-05-26T12:43:40.480Z,23.00
2017-05-26T12:46:08.961Z,23.10
2017-05-26T12:48:36.760Z,23.10
2017-05-26T12:51:06.024Z,23.20
2017-05-26T12:53:33.813Z,23.20
2017-05-26T12:56:01.600Z,23.40
2017-05-26T12:58:29.929Z,23.40
2017-05-26T13:00:57.721Z,23.70
2017-05-26T13:03:25.813Z,23.80
2017-05-26T13:05:53.633Z,24.10
2017-05-26T13:08:21.452Z,24.00
2017-05-26T13:10:49.237Z,23.90
2017-05-26T13:13:17.632Z,23.90
2017-05-26T13:15:45.426Z,24.00
2017-05-26T13:18:13.218Z,24.00
2017-05-26T13:20:41.844Z,24.10
2017-05-26T13:23:09.632Z,25.10
2017-05-26T13:25:37.434Z,29.20
2017-05-26T13:28:05.628Z,31.00
2017-05-26T13:30:33.412Z,32.90
2017-05-26T13:33:02.005Z,34.40
2017-05-26T13:35:29.837Z,35.10
2017-05-26T13:37:57.631Z,35.60
2017-05-26T13:40:24.735Z,35.60
2017-05-26T13:42:53.057Z,37.00
2017-05-26T13:45:20.843Z,37.70
2017-05-26T13:47:49.345Z,38.50
2017-05-26T13:50:18.377Z,38.60
2017-05-26T13:52:46.164Z,38.70
2017-05-26T13:55:13.960Z,38.80
2017-05-26T13:57:42.218Z,38.80
2017-05-26T14:00:10.004Z,38.70
2017-05-26T14:02:37.791Z,39.00
2017-05-26T14:05:06.453Z,39.20
2017-05-26T14:07:33.507Z,39.20
2017-05-26T14:10:01.299Z,40.90
2017-05-26T14:12:29.298Z,41.00
2017-05-26T14:14:57.129Z,40.40
2017-05-26T14:17:24.177Z,40.40
2017-05-26T14:19:52.025Z,40.90
2017-05-26T14:22:19.821Z,40.90
2017-05-26T14:24:47.656Z,40.70
2017-05-26T14:27:15.483Z,41.80
2017-05-26T14:29:42.520Z,41.70
2017-05-26T14:32:09.566Z,41.70
2017-05-26T14:34:37.700Z,42.00
2017-05-26T14:37:05.485Z,42.30
2017-05-26T14:39:33.312Z,41.40
2017-05-26T14:42:01.951Z,41.80
2017-05-26T14:44:29.735Z,42.80
2017-05-26T14:46:57.524Z,43.30
2017-05-26T14:49:31.645Z,42.60
2017-05-26T14:51:59.438Z,42.60
2017-05-26T14:54:27.228Z,42.80
2017-05-26T14:56:55.058Z,43.00
2017-05-26T14:59:22.857Z,42.20
2017-05-26T15:01:50.653Z,41.20
2017-05-26T15:04:18.665Z,41.00
2017-05-26T15:06:46.440Z,41.60
2017-05-26T15:09:14.242Z,41.70
2017-05-26T15:11:42.616Z,42.30
2017-05-26T15:14:10.524Z,41.40
2017-05-26T15:16:38.319Z,41.10
2017-05-26T15:19:06.917Z,41.60
2017-05-26T15:21:34.720Z,41.10
2017-05-26T15:24:02.512Z,41.40
2017-05-26T15:26:30.352Z,41.10
2017-05-26T15:28:58.140Z,41.10
2017-05-26T15:31:25.926Z,41.10
2017-05-26T15:33:53.812Z,41.10
2017-05-26T15:36:21.624Z,41.00
2017-05-26T15:38:49.434Z,40.40
2017-05-26T15:41:17.244Z,40.10
2017-05-26T15:43:45.053Z,40.20
2017-05-26T15:46:12.852Z,40.50
2017-05-26T15:48:41.645Z,40.30
2017-05-26T15:51:10.235Z,39.50
2017-05-26T15:53:38.018Z,39.40
2017-05-26T15:56:05.832Z,39.40
2017-05-26T15:58:33.625Z,39.60
2017-05-26T16:01:01.435Z,39.80
2017-05-26T16:03:30.601Z,39.80
2017-05-26T16:05:58.398Z,39.80
2017-05-26T16:08:25.525Z,39.90
2017-05-26T16:10:53.876Z,39.50
2017-05-26T16:13:21.670Z,38.70
2017-05-26T16:15:49.448Z,39.00
2017-05-26T16:18:17.501Z,38.50
2017-05-26T16:20:45.293Z,37.80
2017-05-26T16:23:12.313Z,37.80
2017-05-26T16:25:41.893Z,37.10
2017-05-26T16:28:09.798Z,38.30
2017-05-26T16:30:37.539Z,38.10
2017-05-26T16:33:05.302Z,37.20
2017-05-26T16:35:33.035Z,37.80
2017-05-26T16:38:00.783Z,38.10
2017-05-26T16:40:29.849Z,37.70
2017-05-26T16:42:57.580Z,37.40
2017-05-26T16:45:25.325Z,37.40
2017-05-26T16:47:53.488Z,36.80
2017-05-26T16:50:21.225Z,36.90
2017-05-26T16:52:49.599Z,36.80
2017-05-26T16:55:17.763Z,36.80
2017-05-26T16:57:44.725Z,36.70
2017-05-26T17:00:12.452Z,36.30
2017-05-26T17:02:40.204Z,36.10
2017-05-26T17:05:07.969Z,36.10
2017-05-26T17:07:34.973Z,36.20
2017-05-26T17:10:03.229Z,36.00
2017-05-26T17:12:31.206Z,35.60
2017-05-26T17:14:58.956Z,35.60
2017-05-26T17:17:26.408Z,35.60
2017-05-26T17:19:54.200Z,30.80
2017-05-26T17:22:21.951Z,31.60
2017-05-26T17:24:50.098Z,31.80
2017-05-26T17:27:17.825Z,31.80
2017-05-26T17:29:45.572Z,29.50
2017-05-26T17:32:13.708Z,27.40
2017-05-26T17:34:41.546Z,26.00
2017-05-26T17:37:09.310Z,25.00
2017-05-26T17:39:37.513Z,24.40
2017-05-26T17:42:05.256Z,23.90
2017-05-26T17:44:32.985Z,23.60
2017-05-26T17:47:01.231Z,23.30
2017-05-26T17:49:28.981Z,23.10
2017-05-26T17:51:56.717Z,22.90
2017-05-26T17:54:25.602Z,22.90
2017-05-26T17:56:53.367Z,22.60
2017-05-26T17:59:23.400Z,22.60
2017-05-26T18:01:51.967Z,22.50
2017-05-26T18:04:19.787Z,22.30
2017-05-26T18:06:47.902Z,22.20
2017-05-26T18:09:16.797Z,22.20
2017-05-26T18:11:44.799Z,22.10
2017-05-26T18:14:12.627Z,22.00
2017-05-26T18:16:40.904Z,21.90
2017-05-26T18:19:08.645Z,21.70
2017-05-26T18:21:36.057Z,21.70
2017-05-26T18:24:03.925Z,21.60
2017-05-26T18:29:18.121Z,21.50
2017-05-26T18:31:45.882Z,21.40
2017-05-26T18:34:12.855Z,21.30
2017-05-26T18:36:40.113Z,21.30
2017-05-26T18:39:07.879Z,21.10
2017-05-26T18:41:35.647Z,21.10
2017-05-26T18:44:04.211Z,21.10
2017-05-26T18:46:32.466Z,20.90
2017-05-26T18:49:00.237Z,20.80
2017-05-26T18:51:28.229Z,20.70
2017-05-26T18:53:55.255Z,20.60
2017-05-26T18:56:23.010Z,20.50
2017-05-26T18:58:51.158Z,20.40
2017-05-26T19:01:19.516Z,20.30
2017-05-26T19:03:47.257Z,20.20
2017-05-26T19:06:15.420Z,20.10
2017-05-26T19:08:42.396Z,20.00
2017-05-26T19:11:10.132Z,19.90
2017-05-26T19:13:38.330Z,19.90
2017-05-26T19:16:06.473Z,19.80
2017-05-26T19:18:33.432Z,19.80
2017-05-26T19:23:49.000Z,19.50
2017-05-26T19:34:35.069Z,19.10
2017-05-26T19:37:02.795Z,19.00
2017-05-26T19:39:29.752Z,19.00
2017-05-26T19:41:57.519Z,18.90
2017-05-26T19:44:25.273Z,18.80
2017-05-26T19:46:53.030Z,18.80
2017-05-26T19:49:20.817Z,18.70
2017-05-26T19:51:48.577Z,18.60
2017-05-26T19:54:16.301Z,18.50
2017-05-26T19:56:44.125Z,18.40
2017-05-26T19:59:11.940Z,18.30
2017-05-26T20:01:39.705Z,18.30
2017-05-26T20:04:08.444Z,18.20
2017-05-26T20:06:36.228Z,18.20
2017-05-26T20:09:03.982Z,18.10
2017-05-26T20:11:31.720Z,18.10
2017-05-26T20:13:59.621Z,18.10
2017-05-26T20:16:27.356Z,18.10
2017-05-26T20:18:55.694Z,18.00
2017-05-26T20:21:23.416Z,18.00
2017-05-26T20:23:51.452Z,18.10
2017-05-26T20:26:19.182Z,18.00
2017-05-26T20:28:46.203Z,17.90
2017-05-26T20:31:13.951Z,18.00
2017-05-26T20:33:41.689Z,17.90
2017-05-26T20:36:09.476Z,17.80
2017-05-26T20:38:37.223Z,17.70
2017-05-26T20:41:04.997Z,17.50
2017-05-26T20:43:32.728Z,17.50
2017-05-26T20:46:00.462Z,17.50
2017-05-26T20:48:28.214Z,17.60
2017-05-26T20:50:55.943Z,17.50
2017-05-26T20:53:23.716Z,17.50
2017-05-26T20:55:51.459Z,17.30
2017-05-26T20:58:19.235Z,17.30
2017-05-26T21:00:46.200Z,17.30
2017-05-26T21:03:13.945Z,17.00
2017-05-26T21:05:41.732Z,16.90
2017-05-26T21:08:09.462Z,17.00
2017-05-26T21:10:37.224Z,17.00
2017-05-26T21:13:04.950Z,16.90
2017-05-26T21:15:32.741Z,16.90
2017-05-26T21:18:00.504Z,17.00
2017-05-26T21:20:28.244Z,17.10
2017-05-26T21:22:56.005Z,17.00
2017-05-26T21:25:23.733Z,17.00
2017-05-26T21:27:51.498Z,16.90
2017-05-26T21:30:19.226Z,16.70
2017-05-26T21:32:47.009Z,16.70
2017-05-26T21:35:14.747Z,16.70
2017-05-26T21:37:41.709Z,16.70
2017-05-26T21:40:09.478Z,16.70
2017-05-26T21:42:37.213Z,16.80
2017-05-26T21:45:04.976Z,16.70
2017-05-26T21:47:32.713Z,16.70
2017-05-26T21:50:00.509Z,16.60
2017-05-26T21:52:28.240Z,16.70
2017-05-26T21:54:56.253Z,16.80
2017-05-26T21:57:24.090Z,16.80
2017-05-26T21:59:51.815Z,16.60
2017-05-26T22:02:19.580Z,16.60
2017-05-26T22:04:47.313Z,16.60
2017-05-26T22:07:15.044Z,16.50
2017-05-26T22:09:42.809Z,16.40
2017-05-26T22:12:10.541Z,16.30
2017-05-26T22:14:38.297Z,16.20
2017-05-26T22:17:06.032Z,16.20
2017-05-26T22:19:33.809Z,16.20
2017-05-26T22:22:01.585Z,16.40
2017-05-26T22:24:29.318Z,16.30
2017-05-26T22:26:57.087Z,16.10
2017-05-26T22:29:24.824Z,16.10
2017-05-26T22:31:52.585Z,16.10
2017-05-26T22:34:20.317Z,15.90
2017-05-26T22:36:48.100Z,15.90
2017-05-26T22:39:15.836Z,15.80
2017-05-26T22:41:43.563Z,15.80
2017-05-26T22:44:11.340Z,15.90
2017-05-26T22:46:39.073Z,15.90
2017-05-26T22:49:06.835Z,16.00
2017-05-26T22:51:34.565Z,16.00
2017-05-26T22:54:02.320Z,15.90
2017-05-26T22:56:30.067Z,15.70
2017-05-26T22:58:57.864Z,15.70
2017-05-26T23:01:25.597Z,15.50
2017-05-26T23:03:53.511Z,15.50
2017-05-26T23:06:21.256Z,15.60
2017-05-26T23:08:48.995Z,15.70
2017-05-26T23:11:16.756Z,15.80
2017-05-26T23:13:44.491Z,15.60
2017-05-26T23:16:12.296Z,15.40
2017-05-26T23:18:40.031Z,15.40
2017-05-26T23:21:08.803Z,15.30
2017-05-26T23:23:36.568Z,15.10
2017-05-26T23:26:04.305Z,15.20
2017-05-26T23:28:32.081Z,15.20
2017-05-26T23:30:59.810Z,15.10
2017-05-26T23:33:27.590Z,15.30
2017-05-26T23:35:55.351Z,15.50
2017-05-26T23:38:23.088Z,15.30
2017-05-26T23:40:50.849Z,15.30
2017-05-26T23:43:18.593Z,15.40
2017-05-26T23:45:46.354Z,15.40
2017-05-26T23:48:14.090Z,15.30
2017-05-26T23:50:41.854Z,15.20
2017-05-26T23:53:09.599Z,15.30
2017-05-26T23:55:37.394Z,15.40
2017-05-26T23:58:05.130Z,15.30
